Time;durP1;ratioP1;P1;durP2;ratioP2;P2;SDS_P1;SDS_P2;PMS_P1;PMS_P2;Temp;Humidity;BMP_temperature;BMP_pressure;BME280_temperature;BME280_humidity;BME280_pressure;Samples;Min_cycle;Max_cycle;Signal;HPM_P1;HPM_P2
2023/06/18 00:05:09;;;;;;;24.30;22.17;;;16.80;99.90;;;;;;2614577;54;20137;-71
2023/06/18 00:10:56;;;;;;;22.40;20.87;;;16.70;99.90;;;;;;2613993;54;20416;-72
2023/06/18 00:16:44;;;;;;;22.80;20.90;;;16.70;99.90;;;;;;2614820;54;20130;-72
2023/06/18 00:22:37;;;;;;;22.77;21.10;;;16.50;99.90;;;;;;2614972;54;20150;-72
2023/06/18 00:28:26;;;;;;;22.03;20.67;;;16.40;99.90;;;;;;2614315;54;20422;-71
2023/06/18 00:34:15;;;;;;;23.23;21.43;;;16.40;99.90;;;;;;2615058;54;20423;-71
2023/06/18 00:40:02;;;;;;;21.20;19.70;;;16.40;99.90;;;;;;2614972;54;20399;-72
2023/06/18 00:45:50;;;;;;;22.50;21.10;;;16.40;99.90;;;;;;2613516;54;20399;-73
2023/06/18 00:55:38;;;;;;;22.70;21.00;;;16.30;99.90;;;;;;2613776;54;20391;-71
2023/06/18 01:01:25;;;;;;;22.50;20.87;;;16.10;99.90;;;;;;2612994;54;20546;-75
2023/06/18 01:07:13;;;;;;;23.17;21.67;;;15.80;99.90;;;;;;2612549;54;20684;-75
2023/06/18 01:13:02;;;;;;;21.83;20.13;;;15.90;99.90;;;;;;2612369;54;20170;-75
2023/06/18 01:18:51;;;;;;;21.30;19.90;;;15.70;99.90;;;;;;2610200;54;20403;-74
2023/06/18 01:24:45;;;;;;;21.10;19.50;;;15.50;99.90;;;;;;2614654;54;20932;-75
2023/06/18 01:30:33;;;;;;;21.00;19.57;;;15.60;99.90;;;;;;2613230;54;20391;-75
2023/06/18 01:53:38;;;;;;;21.10;19.40;;;15.70;99.90;;;;;;2615110;39;20833;-74
2023/06/18 01:59:26;;;;;;;21.90;20.20;;;15.50;99.90;;;;;;2612991;54;20802;-75
2023/06/18 02:05:13;;;;;;;22.37;20.87;;;15.40;99.90;;;;;;2614184;54;20411;-75
2023/06/18 02:11:02;;;;;;;21.20;19.70;;;15.30;99.90;;;;;;2614009;54;20134;-74
2023/06/18 02:16:50;;;;;;;20.00;18.40;;;15.20;99.90;;;;;;2613018;54;20437;-75
2023/06/18 02:22:38;;;;;;;21.00;19.37;;;15.20;99.90;;;;;;2613354;54;20398;-73
2023/06/18 02:28:26;;;;;;;19.70;18.30;;;15.40;99.90;;;;;;2613400;54;20418;-74
2023/06/18 02:34:15;;;;;;;21.00;19.60;;;15.40;99.90;;;;;;2614816;54;20174;-75
2023/06/18 02:40:03;;;;;;;21.60;20.10;;;15.40;99.90;;;;;;2614806;54;20371;-74
2023/06/18 02:45:52;;;;;;;20.70;19.40;;;15.20;99.90;;;;;;2613783;54;20375;-75
2023/06/18 02:55:41;;;;;;;20.70;19.10;;;15.10;99.90;;;;;;2613836;54;20383;-77
2023/06/18 03:01:31;;;;;;;21.40;19.77;;;15.00;99.90;;;;;;2613117;54;20411;-75
2023/06/18 03:07:19;;;;;;;21.57;20.07;;;15.10;99.90;;;;;;2613237;54;20422;-76
2023/06/18 03:13:07;;;;;;;20.20;18.80;;;15.20;99.90;;;;;;2614806;46;20141;-78
2023/06/18 03:18:56;;;;;;;18.97;17.70;;;15.20;99.90;;;;;;2613204;54;20231;-77
2023/06/18 03:24:45;;;;;;;20.70;18.90;;;15.20;99.90;;;;;;2614405;54;20391;-76
2023/06/18 03:30:34;;;;;;;22.50;20.90;;;15.40;99.90;;;;;;2611877;54;20439;-77
2023/06/18 03:36:23;;;;;;;20.87;19.57;;;15.40;99.90;;;;;;2613541;54;20972;-77
2023/06/18 03:42:12;;;;;;;19.80;18.30;;;15.40;99.90;;;;;;2614606;54;20382;-77
2023/06/18 03:48:01;;;;;;;21.63;20.03;;;15.50;99.90;;;;;;2614906;31;20884;-77
2023/06/18 03:51:05;;;;;;;20.10;18.77;;;15.50;99.90;;;;;;2611954;47;20976;-71
2023/06/18 03:53:36;;;;;;;20.80;19.30;;;15.50;99.90;;;;;;2613127;54;20415;-71
2023/06/18 03:59:24;;;;;;;20.20;18.50;;;15.40;99.90;;;;;;2614461;46;20374;-71
2023/06/18 04:05:12;;;;;;;19.70;18.37;;;15.50;99.90;;;;;;2614702;54;20135;-71
2023/06/18 04:10:59;;;;;;;20.53;19.03;;;15.50;99.90;;;;;;2613399;54;20150;-72
2023/06/18 04:16:47;;;;;;;21.40;19.97;;;15.70;99.90;;;;;;2613443;54;20368;-71
2023/06/18 04:22:34;;;;;;;22.00;20.20;;;16.00;99.90;;;;;;2614557;39;20614;-71
2023/06/18 04:28:22;;;;;;;20.40;18.80;;;16.20;99.90;;;;;;2613798;54;20134;-71
2023/06/18 04:34:10;;;;;;;20.90;19.50;;;16.50;99.90;;;;;;2614728;54;20409;-72
2023/06/18 04:39:58;;;;;;;20.70;19.27;;;16.70;99.90;;;;;;2613217;54;20122;-71
2023/06/18 04:45:46;;;;;;;20.57;19.27;;;17.30;99.90;;;;;;2613004;54;20204;-71
2023/06/18 04:55:37;;;;;;;22.50;20.83;;;17.70;99.90;;;;;;2612972;54;20507;-71
2023/06/18 05:01:26;;;;;;;22.23;20.83;;;18.00;99.90;;;;;;2611537;54;20407;-71
2023/06/18 05:07:15;;;;;;;22.90;21.50;;;18.50;99.90;;;;;;2613304;54;20391;-70
2023/06/18 05:13:03;;;;;;;23.30;21.90;;;19.10;99.90;;;;;;2612499;54;20488;-72
2023/06/18 05:18:51;;;;;;;23.97;22.30;;;19.70;94.20;;;;;;2614045;54;20250;-72
2023/06/18 05:24:39;;;;;;;22.93;21.60;;;20.20;90.30;;;;;;2614107;54;20130;-71
2023/06/18 05:30:27;;;;;;;24.30;22.33;;;20.70;73.80;;;;;;2614262;54;20376;-70
2023/06/18 05:36:15;;;;;;;23.90;22.20;;;20.60;58.70;;;;;;2614449;54;20837;-72
2023/06/18 05:42:03;;;;;;;24.20;22.60;;;21.50;46.00;;;;;;2612554;54;20134;-72
2023/06/18 05:47:51;;;;;;;22.63;21.20;;;21.20;46.20;;;;;;2610129;54;20411;-71
2023/06/18 05:51:08;;;;;;;23.37;21.90;;;21.50;41.60;;;;;;2609210;54;20423;-70
2023/06/18 05:53:34;;;;;;;24.70;23.00;;;21.70;37.70;;;;;;2612768;54;20165;-70
2023/06/18 05:59:21;;;;;;;23.53;21.90;;;22.30;31.90;;;;;;2611020;54;20129;-71
2023/06/18 06:05:09;;;;;;;22.53;20.97;;;21.70;30.00;;;;;;2611502;54;20135;-70
2023/06/18 06:10:57;;;;;;;21.30;20.10;;;22.40;32.40;;;;;;2612535;54;20126;-71
2023/06/18 06:16:44;;;;;;;22.63;21.20;;;22.80;30.40;;;;;;2611951;54;20159;-69
2023/06/18 06:22:32;;;;;;;21.70;20.50;;;22.60;40.10;;;;;;2609839;54;20173;-70
2023/06/18 06:28:20;;;;;;;21.90;20.60;;;22.80;31.20;;;;;;2610984;54;20138;-71
2023/06/18 06:34:08;;;;;;;21.87;20.77;;;22.80;32.90;;;;;;2610935;54;20154;-71
2023/06/18 06:39:56;;;;;;;22.30;21.10;;;23.00;53.10;;;;;;2610779;39;20547;-71
2023/06/18 06:45:43;;;;;;;22.50;21.30;;;23.60;42.10;;;;;;2612104;54;20185;-70
2023/06/18 06:55:37;;;;;;;21.20;20.00;;;25.20;24.00;;;;;;2609702;54;20926;-70
2023/06/18 07:01:25;;;;;;;21.10;19.80;;;26.00;16.10;;;;;;2608168;54;20426;-71
2023/06/18 07:07:13;;;;;;;21.60;20.40;;;25.70;11.30;;;;;;2609542;54;20138;-72
2023/06/18 07:13:01;;;;;;;21.13;19.93;;;26.50;10.70;;;;;;2608709;54;20951;-72
2023/06/18 07:18:49;;;;;;;22.50;21.27;;;26.40;7.40;;;;;;2612452;46;20626;-71
2023/06/18 07:24:37;;;;;;;20.67;19.57;;;27.30;6.50;;;;;;2611914;54;20137;-71
2023/06/18 07:30:24;;;;;;;21.57;20.47;;;27.00;9.30;;;;;;2609375;54;20170;-72
2023/06/18 07:36:12;;;;;;;20.30;19.30;;;27.10;3.90;;;;;;2610351;54;20142;-71
2023/06/18 07:42:00;;;;;;;21.77;20.50;;;27.80;1.00;;;;;;2609642;54;20122;-72
2023/06/18 07:47:48;;;;;;;19.33;18.40;;;28.20;1.00;;;;;;2611547;54;20234;-70
2023/06/18 07:51:09;;;;;;;20.77;19.57;;;27.90;1.00;;;;;;2612267;54;20428;-71
2023/06/18 07:53:35;;;;;;;20.93;19.83;;;28.30;1.00;;;;;;2610034;54;20676;-70
2023/06/18 07:59:22;;;;;;;20.30;19.30;;;28.50;1.00;;;;;;2609929;54;20182;-71
2023/06/18 08:05:11;;;;;;;19.67;18.67;;;28.40;1.20;;;;;;2611417;54;20402;-70
2023/06/18 08:10:58;;;;;;;20.00;18.90;;;28.30;1.00;;;;;;2611525;54;20893;-71
2023/06/18 08:16:46;;;;;;;19.73;18.73;;;28.60;1.00;;;;;;2611247;54;20126;-71
2023/06/18 08:22:33;;;;;;;19.37;18.37;;;29.20;1.00;;;;;;2611315;54;20138;-72
2023/06/18 08:28:21;;;;;;;19.40;18.30;;;29.20;1.00;;;;;;2606621;54;20680;-71
2023/06/18 08:34:09;;;;;;;19.30;18.40;;;30.20;1.00;;;;;;2613054;54;20161;-70
2023/06/18 08:39:57;;;;;;;19.60;18.50;;;29.00;1.00;;;;;;2613291;54;20150;-71
2023/06/18 08:45:45;;;;;;;19.67;18.47;;;29.60;1.00;;;;;;2612246;54;20150;-71
2023/06/18 08:55:42;;;;;;;21.87;20.67;;;30.60;1.00;;;;;;2613096;54;20435;-70
2023/06/18 09:01:30;;;;;;;20.60;19.47;;;30.50;1.00;;;;;;2609049;54;20359;-71
2023/06/18 09:07:20;;;;;;;20.83;19.67;;;30.10;1.00;;;;;;2610344;54;20471;-71
2023/06/18 09:13:08;;;;;;;21.23;20.03;;;30.60;1.00;;;;;;2609219;54;21354;-70
2023/06/18 09:18:56;;;;;;;20.27;19.27;;;31.30;1.00;;;;;;2610433;54;20134;-71
2023/06/18 09:24:44;;;;;;;20.17;19.13;;;30.10;1.00;;;;;;2608359;54;20367;-70
2023/06/18 09:30:32;;;;;;;18.90;17.83;;;30.00;1.00;;;;;;2608377;54;20367;-72
2023/06/18 09:36:20;;;;;;;19.33;18.33;;;28.70;1.00;;;;;;2611012;54;20126;-70
2023/06/18 09:42:11;;;;;;;19.47;18.47;;;29.60;1.00;;;;;;2608449;54;20242;-71
2023/06/18 09:47:58;;;;;;;20.33;19.23;;;29.40;1.00;;;;;;2605329;54;20402;-71
2023/06/18 09:51:10;;;;;;;19.30;18.40;;;29.60;1.00;;;;;;2606842;39;20806;-71
2023/06/18 09:53:36;;;;;;;21.00;19.80;;;29.70;1.00;;;;;;2607179;54;20151;-71
2023/06/18 09:59:25;;;;;;;19.60;18.60;;;30.60;1.00;;;;;;2611556;54;20411;-71
2023/06/18 10:05:13;;;;;;;18.30;17.40;;;31.40;1.00;;;;;;2608393;54;20564;-71
2023/06/18 10:11:01;;;;;;;18.10;17.20;;;30.50;1.00;;;;;;2608353;54;20142;-70
2023/06/18 10:16:53;;;;;;;19.53;18.40;;;31.80;1.00;;;;;;2607940;54;20173;-71
2023/06/18 10:22:45;;;;;;;18.40;17.50;;;31.50;1.00;;;;;;2610652;54;20475;-71
2023/06/18 10:28:34;;;;;;;21.03;19.43;;;31.60;1.00;;;;;;2607607;54;21143;-70
2023/06/18 10:34:23;;;;;;;19.20;18.30;;;31.20;1.00;;;;;;2607719;54;21924;-70
2023/06/18 10:40:12;;;;;;;19.67;18.67;;;30.60;1.00;;;;;;2612183;54;20359;-71
2023/06/18 10:46:10;;;;;;;18.67;17.73;;;31.60;1.00;;;;;;2613629;54;20400;-73
2023/06/18 10:55:38;;;;;;;18.80;17.83;;;30.80;1.00;;;;;;2609729;54;20562;-69
2023/06/18 11:01:26;;;;;;;18.57;17.60;;;31.10;1.00;;;;;;2610966;54;20430;-69
2023/06/18 11:07:23;;;;;;;18.60;17.57;;;31.20;1.00;;;;;;2609455;54;20363;-69
2023/06/18 11:13:11;;;;;;;18.53;17.53;;;31.00;1.00;;;;;;2610004;54;20999;-70
2023/06/18 11:19:02;;;;;;;19.03;17.93;;;31.70;1.00;;;;;;2612046;54;21469;-68
2023/06/18 11:24:51;;;;;;;21.00;19.80;;;31.40;1.00;;;;;;2614512;54;20410;-69
2023/06/18 11:30:39;;;;;;;21.80;20.70;;;33.00;1.00;;;;;;2613958;54;20411;-69
2023/06/18 11:36:27;;;;;;;21.60;20.40;;;32.70;1.00;;;;;;2612204;54;20399;-69
2023/06/18 11:42:22;;;;;;;20.50;19.40;;;33.20;1.00;;;;;;2614112;54;20357;-69
2023/06/18 11:48:10;;;;;;;20.13;18.90;;;33.50;1.00;;;;;;2612287;54;21008;-70
2023/06/18 11:51:11;;;;;;;19.63;18.73;;;33.60;1.00;;;;;;2613614;54;20427;-70
2023/06/18 11:53:37;;;;;;;20.93;19.90;;;34.90;1.00;;;;;;2613520;54;20137;-68
2023/06/18 11:59:24;;;;;;;19.20;18.30;;;33.00;1.00;;;;;;2614342;54;20128;-69
2023/06/18 12:05:12;;;;;;;19.27;18.07;;;31.50;1.00;;;;;;2615283;54;20203;-69
2023/06/18 12:11:03;;;;;;;19.53;18.43;;;32.00;1.00;;;;;;2613802;54;20151;-70
2023/06/18 12:16:54;;;;;;;19.33;18.33;;;33.30;1.00;;;;;;2613018;54;20488;-69
2023/06/18 12:22:42;;;;;;;20.63;19.50;;;32.40;1.00;;;;;;2614045;54;20378;-69
2023/06/18 12:28:33;;;;;;;19.43;18.53;;;31.60;1.00;;;;;;2614291;54;20130;-70
2023/06/18 12:34:24;;;;;;;20.10;19.00;;;31.30;1.00;;;;;;2614814;54;20390;-69
2023/06/18 12:46:43;;;;;;;21.20;20.20;;;32.30;1.00;;;;;;2614271;54;20471;-69
2023/06/18 12:55:59;;;;;;;20.13;19.10;;;33.60;1.00;;;;;;2612489;39;20952;-69
2023/06/18 13:01:47;;;;;;;20.73;19.43;;;32.50;1.00;;;;;;2613285;54;20396;-69
2023/06/18 13:07:37;;;;;;;20.40;19.40;;;31.60;1.00;;;;;;2613244;54;20366;-69
2023/06/18 13:13:24;;;;;;;20.70;19.50;;;31.00;1.00;;;;;;2613523;54;21399;-69
2023/06/18 13:19:12;;;;;;;20.80;19.70;;;30.90;1.00;;;;;;2613001;54;20126;-70
2023/06/18 13:25:00;;;;;;;19.70;18.70;;;30.50;1.00;;;;;;2613674;54;20174;-69
2023/06/18 13:30:47;;;;;;;19.20;18.20;;;30.60;1.00;;;;;;2613383;54;20133;-69
2023/06/18 13:36:35;;;;;;;19.27;18.37;;;30.30;1.00;;;;;;2612255;54;20150;-70
2023/06/18 13:42:23;;;;;;;21.40;20.20;;;30.40;1.00;;;;;;2612019;46;20205;-69
2023/06/18 13:48:12;;;;;;;20.20;19.00;;;30.40;1.00;;;;;;2610238;54;20131;-68
2023/06/18 13:51:11;;;;;;;20.27;19.17;;;30.60;1.00;;;;;;2610710;54;20426;-69
2023/06/18 13:53:37;;;;;;;20.67;19.47;;;30.30;1.00;;;;;;2610435;39;20986;-69
2023/06/18 13:59:25;;;;;;;22.50;19.90;;;30.00;1.00;;;;;;2608589;54;20130;-69
2023/06/18 14:05:12;;;;;;;21.53;20.43;;;29.50;1.00;;;;;;2610530;54;20185;-69
2023/06/18 14:11:00;;;;;;;19.97;18.97;;;29.70;1.00;;;;;;2610864;54;20133;-69
2023/06/18 14:16:50;;;;;;;21.40;20.30;;;29.30;1.00;;;;;;2610104;39;20232;-70
2023/06/18 14:22:38;;;;;;;19.33;18.40;;;29.60;1.00;;;;;;2610859;54;20407;-70
2023/06/18 14:28:26;;;;;;;20.10;19.10;;;29.60;1.00;;;;;;2609837;54;20142;-68
2023/06/18 14:34:14;;;;;;;21.07;19.80;;;29.40;1.00;;;;;;2609604;54;20133;-68
2023/06/18 14:40:02;;;;;;;20.40;19.20;;;29.50;1.00;;;;;;2613883;54;20387;-69
2023/06/18 14:45:50;;;;;;;20.80;19.70;;;29.60;1.00;;;;;;2613540;54;20414;-68
2023/06/18 14:55:44;;;;;;;21.17;19.97;;;29.50;1.00;;;;;;2613036;54;20363;-68
2023/06/18 15:01:31;;;;;;;22.23;21.03;;;29.00;1.00;;;;;;2613134;54;20431;-68
2023/06/18 15:07:19;;;;;;;21.97;20.77;;;29.00;1.00;;;;;;2613454;54;20126;-69
2023/06/18 15:13:07;;;;;;;22.13;20.83;;;28.40;1.00;;;;;;2613033;54;20391;-69
2023/06/18 15:18:55;;;;;;;22.83;21.53;;;28.30;1.00;;;;;;2614098;54;20652;-68
2023/06/18 15:24:42;;;;;;;21.67;20.27;;;28.00;1.00;;;;;;2612906;54;20115;-70
2023/06/18 15:30:30;;;;;;;22.80;21.37;;;27.90;1.00;;;;;;2613330;54;20122;-69
2023/06/18 15:36:18;;;;;;;20.77;19.60;;;27.60;1.00;;;;;;2610041;54;20671;-69
2023/06/18 15:42:06;;;;;;;19.33;18.43;;;27.80;1.00;;;;;;2614628;39;20607;-68
2023/06/18 15:47:54;;;;;;;22.27;21.07;;;27.80;1.00;;;;;;2613637;54;20137;-69
2023/06/18 15:51:11;;;;;;;21.83;20.73;;;27.80;1.00;;;;;;2612461;46;20539;-68
2023/06/18 15:53:37;;;;;;;23.57;22.07;;;27.80;1.00;;;;;;2613819;54;20494;-68
2023/06/18 15:59:25;;;;;;;22.27;21.07;;;27.60;1.00;;;;;;2611762;54;20142;-68
2023/06/18 16:05:12;;;;;;;22.03;20.83;;;27.40;1.00;;;;;;2613725;54;20154;-69
2023/06/18 16:11:00;;;;;;;20.93;19.77;;;27.00;1.00;;;;;;2613486;54;20271;-69
2023/06/18 16:16:48;;;;;;;24.50;23.03;;;27.00;1.00;;;;;;2614773;54;20114;-69
2023/06/18 16:22:35;;;;;;;23.23;21.83;;;27.10;1.00;;;;;;2614188;54;20648;-69
2023/06/18 16:28:23;;;;;;;20.73;19.73;;;27.10;1.00;;;;;;2613975;54;20245;-68
2023/06/18 16:34:11;;;;;;;21.07;19.90;;;27.00;1.00;;;;;;2615121;54;20146;-68
2023/06/18 16:39:59;;;;;;;20.03;18.93;;;27.10;1.00;;;;;;2614727;54;20122;-68
2023/06/18 16:45:46;;;;;;;20.10;19.13;;;26.80;1.00;;;;;;2612989;54;20624;-70
2023/06/18 17:01:47;;;;;;;21.70;20.60;;;26.90;1.00;;;;;;2610052;54;20439;-68
2023/06/18 17:07:35;;;;;;;21.33;20.23;;;26.90;1.00;;;;;;2611618;54;20151;-69
2023/06/18 17:13:22;;;;;;;21.70;20.60;;;26.90;1.00;;;;;;2612134;54;20122;-69
2023/06/18 17:19:09;;;;;;;20.83;19.63;;;26.90;1.00;;;;;;2612835;54;20114;-68
2023/06/18 17:24:56;;;;;;;22.00;20.43;;;26.80;1.00;;;;;;2612247;54;20581;-69
2023/06/18 17:30:44;;;;;;;22.57;21.17;;;26.80;1.00;;;;;;2612600;46;20187;-69
2023/06/18 17:36:31;;;;;;;22.33;21.03;;;26.90;1.00;;;;;;2614850;54;20134;-69
2023/06/18 17:42:19;;;;;;;22.80;21.50;;;26.80;1.00;;;;;;2614989;46;20161;-68
2023/06/18 17:48:06;;;;;;;21.90;20.70;;;26.80;1.00;;;;;;2614707;39;20522;-69
2023/06/18 17:51:12;;;;;;;21.43;20.23;;;26.80;1.00;;;;;;2614001;47;20522;-69
2023/06/18 17:53:40;;;;;;;20.93;19.90;;;26.80;1.00;;;;;;2614042;54;20154;-69
2023/06/18 17:59:28;;;;;;;23.77;22.37;;;26.70;1.00;;;;;;2613804;54;20431;-69
2023/06/18 18:05:15;;;;;;;22.30;21.00;;;26.60;1.00;;;;;;2614143;54;20661;-68
2023/06/18 18:11:03;;;;;;;21.13;20.03;;;26.60;1.00;;;;;;2613033;54;20663;-68
2023/06/18 18:16:51;;;;;;;22.40;21.20;;;26.60;1.00;;;;;;2614588;39;20530;-69
2023/06/18 18:22:39;;;;;;;21.77;20.67;;;26.50;1.00;;;;;;2614472;54;20126;-69
2023/06/18 18:28:30;;;;;;;21.67;20.50;;;26.50;1.00;;;;;;2613994;54;20206;-68
2023/06/18 18:34:17;;;;;;;23.57;22.20;;;26.50;1.00;;;;;;2613222;54;20410;-69
2023/06/18 18:40:05;;;;;;;23.90;22.60;;;26.30;1.00;;;;;;2613644;54;20197;-69
2023/06/18 18:45:53;;;;;;;23.67;22.10;;;26.00;1.00;;;;;;2613621;54;20391;-69
2023/06/18 18:55:40;;;;;;;22.80;21.60;;;25.80;1.00;;;;;;2613101;54;20347;-70
2023/06/18 19:01:28;;;;;;;23.70;22.10;;;25.60;1.00;;;;;;2614593;54;20410;-69
2023/06/18 19:07:15;;;;;;;22.73;21.33;;;25.50;1.00;;;;;;2614659;39;20550;-69
2023/06/18 19:13:05;;;;;;;24.03;22.40;;;25.40;1.00;;;;;;2612646;54;20170;-69
2023/06/18 19:18:55;;;;;;;25.27;23.40;;;25.40;1.00;;;;;;2614922;39;20747;-69
2023/06/18 19:24:43;;;;;;;22.97;21.63;;;25.30;1.00;;;;;;2614203;54;20379;-68
2023/06/18 19:30:31;;;;;;;22.97;21.60;;;25.30;1.00;;;;;;2612125;39;20221;-69
2023/06/18 19:36:19;;;;;;;24.43;23.00;;;25.10;1.00;;;;;;2612227;54;20142;-68
2023/06/18 19:42:06;;;;;;;24.80;23.30;;;25.10;1.00;;;;;;2614230;54;20166;-69
2023/06/18 19:47:54;;;;;;;23.70;22.30;;;25.20;1.00;;;;;;2613819;54;20122;-68
2023/06/18 19:53:56;;;;;;;23.73;22.37;;;25.20;1.00;;;;;;2612006;54;20412;-70
2023/06/18 19:59:43;;;;;;;24.43;22.93;;;25.10;1.00;;;;;;2611551;54;20164;-69
2023/06/18 20:05:31;;;;;;;24.20;22.67;;;25.00;1.00;;;;;;2612347;54;20131;-69
2023/06/18 20:11:18;;;;;;;24.30;22.73;;;24.90;1.00;;;;;;2612640;54;20151;-69
2023/06/18 20:17:05;;;;;;;24.40;22.97;;;24.80;1.00;;;;;;2611520;54;20146;-69
2023/06/18 20:22:52;;;;;;;25.67;24.10;;;24.80;1.00;;;;;;2609655;54;20166;-69
2023/06/18 20:28:39;;;;;;;23.70;22.43;;;24.80;1.00;;;;;;2611580;54;20189;-69
2023/06/18 20:34:27;;;;;;;24.87;23.10;;;24.60;1.00;;;;;;2612666;39;20523;-74
2023/06/18 20:40:14;;;;;;;25.60;24.00;;;24.60;1.70;;;;;;2610174;54;20135;-74
2023/06/18 20:46:02;;;;;;;25.97;24.20;;;24.50;2.50;;;;;;2611829;54;20834;-74
2023/06/18 20:55:46;;;;;;;25.80;24.40;;;24.50;3.90;;;;;;2611886;54;21181;-75
2023/06/18 21:01:33;;;;;;;24.23;22.93;;;24.30;3.80;;;;;;2614074;54;20371;-74
2023/06/18 21:07:21;;;;;;;26.20;24.50;;;24.30;3.40;;;;;;2609537;54;20669;-74
2023/06/18 21:13:09;;;;;;;25.40;23.90;;;24.40;3.30;;;;;;2610515;54;20188;-74
2023/06/18 21:18:57;;;;;;;25.07;23.33;;;24.40;3.00;;;;;;2610856;54;20127;-74
2023/06/18 21:24:45;;;;;;;24.80;23.20;;;24.10;3.70;;;;;;2611806;39;20570;-76
2023/06/18 21:30:33;;;;;;;24.90;23.50;;;24.00;5.00;;;;;;2611067;54;20126;-75
2023/06/18 21:36:21;;;;;;;24.20;22.90;;;23.90;6.00;;;;;;2613919;54;20374;-75
2023/06/18 21:42:09;;;;;;;24.10;22.80;;;24.00;6.20;;;;;;2613996;54;20237;-73
2023/06/18 21:47:56;;;;;;;24.47;23.00;;;23.90;6.60;;;;;;2613335;54;20130;-74
2023/06/18 21:51:14;;;;;;;25.10;23.70;;;23.90;6.40;;;;;;2614408;39;20766;-74
2023/06/18 21:53:40;;;;;;;24.40;23.00;;;23.90;7.10;;;;;;2612765;39;20362;-74
2023/06/18 21:59:28;;;;;;;24.50;23.00;;;23.90;7.80;;;;;;2612641;54;20124;-74
2023/06/18 22:05:16;;;;;;;26.00;24.50;;;23.90;8.40;;;;;;2612904;54;20170;-74
2023/06/18 22:11:03;;;;;;;24.70;23.20;;;23.80;9.60;;;;;;2613613;54;20419;-73
2023/06/18 22:16:51;;;;;;;25.83;24.33;;;23.90;9.30;;;;;;2614073;39;20209;-73
2023/06/18 22:22:41;;;;;;;24.73;23.30;;;24.00;10.00;;;;;;2612356;54;20142;-73
2023/06/18 22:25:44;;;;;;;24.50;23.20;;;24.00;10.40;;;;;;2614280;54;20978;-73
2023/06/18 22:28:10;;;;;;;23.90;22.60;;;23.90;11.40;;;;;;2612426;47;20431;-74
2023/06/18 22:33:58;;;;;;;21.43;20.20;;;24.00;12.10;;;;;;2613353;54;20126;-75
2023/06/18 22:39:45;;;;;;;21.20;19.80;;;24.50;13.40;;;;;;2612481;54;20162;-73
2023/06/18 22:45:33;;;;;;;21.63;20.53;;;24.60;14.50;;;;;;2614106;39;20646;-73
2023/06/18 22:58:06;;;;;;;21.37;20.27;;;24.40;16.60;;;;;;2612263;54;20411;-74
2023/06/18 23:03:54;;;;;;;20.93;19.63;;;24.40;17.00;;;;;;2613158;54;20939;-74
2023/06/18 23:09:42;;;;;;;21.10;19.90;;;24.40;17.60;;;;;;2613003;54;20405;-73
2023/06/18 23:15:30;;;;;;;21.53;20.43;;;24.30;18.90;;;;;;2614267;54;20404;-73
2023/06/18 23:21:18;;;;;;;21.47;20.27;;;24.20;20.00;;;;;;2613315;54;20653;-75
2023/06/18 23:27:05;;;;;;;21.13;20.17;;;24.00;21.40;;;;;;2612856;54;20165;-74
2023/06/18 23:32:53;;;;;;;21.20;20.20;;;24.00;22.30;;;;;;2613715;54;20418;-73
2023/06/18 23:38:41;;;;;;;20.90;19.90;;;23.90;23.20;;;;;;2612959;54;20166;-73
2023/06/18 23:44:30;;;;;;;20.70;19.70;;;23.80;25.20;;;;;;2612160;54;20123;-73
2023/06/18 23:50:17;;;;;;;21.30;20.20;;;23.80;25.60;;;;;;2613566;54;20411;-73
2023/06/18 23:56:05;;;;;;;22.03;20.90;;;23.80;25.10;;;;;;2613203;54;20266;-73
